Portada
METAR-TAF:

METAR-TAF

Aeroports :

Iași, Romania

latitud: 47-10N, longitud: 027-38E, altitud: 102 m

Observació

L'informe es va fer fa 22 minuts, a les 16:30 UTC
Vent 4 kt del Nord-Oest
Temperatura 0°C
Humitat 100%
Pressió 1017 hPa
Visibilitat: 0100 m
boira

METAR: LRIA 101630Z 31004KT 0100 R14/0650N R32/0600N FG VV001 00/00 Q1017 R14/19//95

Hora: 18:52 (16:52 UTC)

Pronòstic

L'informe es va fer fa 2 hores i 52 minuts, a les 14:00 UTC
Pronòstic vàlid del 10 a les 14 UTC al 10 a les 21 UTC
Vent 4 kt amb direcció variable
Visibilitat: 0350 m
a una alçada de 100 ft
boira
Temporalment
l' 10 a les 14 UTC al 10 a les 16 UTC
Visibilitat: 0800 m
Cel ennuvolat a una alçada de 200 ft
Evolucionant progressivament
l' 10 a les 17 UTC al 10 a les 19 UTC
Visibilitat: 0150 m
boira gebradora

TAF: LRIA 101400Z 1014/1021 VRB04KT 0350 FG VV001 TEMPO 1014/1016 0800 BKN002 BECMG 1017/1019 0150 FZFG

Observacions i pronòstics meteorològics de més de 4000 aeroports (METAR i TAF).

Les estacions disponibles són els punts grocs i vermells al mapa.

Posi el ratolí al punt desitjat per veure el nom de l'estació.

Feu clic per veure les observacions i els pronòstics meteorològics.

Per canviar el mapa: feu clic els botons verds amb una creu de color negre per apropar; al botó verd amb un guió per allunyar la imatge; o en les fletxes verdes per a mapes adjacents.


METAR-TAF: